Strona główna
METAR-TAF:

METAR-TAF

Lotnisko :

Port lotniczy Sibulan

Dumaguete, Filipiny

Szerokość geograficzna: 09-20-01N, Długość geograficzna: 123-18-02E, wysokość: 5 m

Aktualna obserwacja pogody

Raport powstał 1 godzina i 29 minut temu, godzina 21:00 UTC
Wiatr 6 kt od północny zachód
Temperatura 25°C
Wilgotność 94%
Ciśnienie 1012 hPa
Widzialność 10 km lub więcej
Mało chmury na wysokości 1500 ft

METAR: RPVD 232100Z 32006KT 9999 FEW015 25/24 Q1012 RMK A2988

czas: 06:29 (22:29 UTC)

Prognoza

Raport powstał 5 godziny i 29 minut temu, godzina 17:00 UTC
Prognoza ważna od 23 godzina 18 UTC do 24 godzina 18 UTC
Wiatr 10 kt od północny wschód
Widzialność 10 km lub więcej
Mało chmury na wysokości 1500 ft
Rozproszone chmury na wysokości 22000 ft
Przejściowo
od 23 godzina 18 UTC do 23 godzina 24 UTC
Wiatr 6 kt od północ
Mało chmury na wysokości 1500 ft
Przerywane chmury na wysokości 7000 ft

TAF: RPVD 231700Z 2318/2418 04010KT 9999 FEW015 SCT220 TEMPO 2318/2324 36006KT FEW015 BKN070

Obserwacja i prognoza pogody dla ponad 4000 lotnisk (raport METAR i TAF).

Dostępne stacje oznaczono żółtymi i czerwonymi punktami na mapie.

Najedź kursorem aby zobaczyć nazwę stacji.

Kliknij aby zobaczyć obserwacje i prognozy pogody.

Aby zmienić mapę: kliknij na zielony przycisk z czarnym krzyżykiem, aby powiększyć; na zielony przycisk z myślnikiem, aby pomniejszyć; na zielone strzałki, aby przejść do map sąsiednich.


METAR-TAF: